KPDK/PDK METAR and TAF weather

Enter ICAO airport designator
Station Type Date Time Source
KPDK METAR 2022/01/25 03:53 UTC NOAA

KPDK 250353Z 22005KT 10SM CLR 09/M01 A2993 RMK AO2 SLP139 T00891006


Station Type Date Time Source
KPDK Decoded METAR 2022/01/25 03:53 UTC NOAA

ATLANTA DE KALB-PEACHTREE, GA, United States (KPDK) 33-53N 084-18W 302M
Jan 24, 2022 - 10:53 PM EST / 2022.01.25 0353 UTC
Wind: from the SW (220 degrees) at 6 MPH (5 KT):0
Visibility: 10 mile(s):0
Sky conditions: clear
Temperature: 48.0 F (8.9 C)
Dew Point: 30.9 F (-0.6 C)
Relative Humidity: 51%
Pressure (altimeter): 29.93 in. Hg (1013 hPa)
ob: KPDK 250353Z 22005KT 10SM CLR 09/M01 A2993 RMK AO2 SLP139 T00891006
cycle: 4

Station Type Date Time Source
KPDK TAF 2022/01/24 20:33 UTC NOAA

TAF
AMD KPDK 241930Z 2420/2518 26010G20KT P6SM SKC
FM242300 23004KT P6SM FEW250
FM250400 24004KT P6SM BKN250
FM251600 27005KT P6SM BKN090

Example: see airport list